Time;durP1;ratioP1;P1;durP2;ratioP2;P2;SDS_P1;SDS_P2;PMS_P1;PMS_P2;Temp;Humidity;BMP_temperature;BMP_pressure;BME280_temperature;BME280_humidity;BME280_pressure;Samples;Min_cycle;Max_cycle;Signal;HPM_P1;HPM_P2
2022/09/23 00:00:47;;;;;;;0.13;0.13;;;18.90;99.90;;;19.33;49.86;101445.75;4928248;28;97183;-56
2022/09/23 00:03:15;;;;;;;0.40;0.00;;;18.90;99.90;;;19.29;49.83;101446.88;4929583;28;98047;-57
2022/09/23 00:05:42;;;;;;;0.00;0.00;;;18.80;98.70;;;19.24;50.11;101446.31;4926598;28;103340;-53
2022/09/23 00:08:11;;;;;;;0.00;0.00;;;18.70;99.90;;;19.20;50.07;101442.06;4928674;28;97468;-57
2022/09/23 00:10:39;;;;;;;0.00;0.00;;;18.60;99.90;;;19.19;50.39;101437.69;4927895;28;97493;-57
2022/09/23 00:13:05;;;;;;;0.00;0.00;;;18.60;99.90;;;19.18;50.47;101438.63;4930186;28;97987;-55
2022/09/23 00:19:14;;;;;;;0.00;0.00;;;18.70;99.90;;;19.16;50.37;101431.66;5802327;22;98102;-56
2022/09/23 00:21:41;;;;;;;0.40;0.30;;;18.60;99.90;;;19.15;50.53;101436.16;4957384;28;100623;-56
2022/09/23 00:24:07;;;;;;;0.00;0.00;;;18.70;99.90;;;19.13;50.38;101424.69;4972211;28;97755;-55
2022/09/23 00:26:33;;;;;;;0.00;0.00;;;18.60;99.90;;;19.11;50.26;101423.06;4973251;28;97488;-56
2022/09/23 00:28:59;;;;;;;0.00;0.00;;;18.60;99.90;;;19.09;50.26;101422.25;4971943;28;100477;-49
2022/09/23 00:31:26;;;;;;;0.00;0.00;;;18.60;99.50;;;19.01;50.47;101428.09;4973190;28;97906;-54
2022/09/23 00:33:59;;;;;;;0.00;0.00;;;18.40;98.50;;;18.94;50.89;101421.34;4974224;28;96822;-52
2022/09/23 00:36:26;;;;;;;0.00;0.00;;;18.20;99.90;;;18.87;51.16;101425.34;4940816;28;99084;-55
2022/09/23 00:38:53;;;;;;;0.00;0.00;;;18.10;99.90;;;18.88;51.24;101432.41;4967710;28;96794;-51
2022/09/23 00:41:20;;;;;;;0.00;0.00;;;18.20;99.90;;;18.87;51.09;101425.34;4957548;28;96920;-52
2022/09/23 00:43:55;;;;;;;0.33;0.23;;;18.20;99.90;;;18.89;51.09;101420.78;4980080;28;97039;-55
2022/09/23 00:46:40;;;;;;;0.00;0.00;;;18.20;99.90;;;18.90;51.33;101422.50;4974839;28;97441;-52
2022/09/23 00:49:10;;;;;;;0.00;0.00;;;18.20;99.90;;;18.90;51.11;101419.81;4960576;28;97074;-53
2022/09/23 00:51:42;;;;;;;0.00;0.00;;;18.30;99.90;;;18.90;51.13;101419.81;4947514;28;97136;-55
2022/09/23 00:54:09;;;;;;;0.00;0.00;;;18.30;99.90;;;18.90;51.11;101419.81;4953612;28;97079;-55
2022/09/23 00:56:38;;;;;;;0.00;0.00;;;18.30;99.90;;;18.92;51.13;101417.91;4967503;28;101162;-54
2022/09/23 00:59:06;;;;;;;0.00;0.00;;;18.30;99.90;;;18.91;51.27;101416.19;4947177;28;99174;-52
2022/09/23 01:01:31;;;;;;;0.00;0.00;;;18.30;99.90;;;18.90;51.13;101417.16;4936162;28;97333;-52
2022/09/23 01:03:57;;;;;;;0.00;0.00;;;18.20;99.90;;;18.89;51.18;101413.63;4965417;28;96893;-55
2022/09/23 01:06:24;;;;;;;0.00;0.00;;;18.20;99.90;;;18.89;51.13;101407.41;4963291;28;97799;-55
2022/09/23 01:08:51;;;;;;;0.00;0.00;;;18.20;99.90;;;18.91;51.40;101416.19;4962023;28;97729;-54
2022/09/23 01:11:33;;;;;;;0.00;0.00;;;18.30;99.90;;;18.95;51.25;101401.69;4948994;28;107175;-52
2022/09/23 01:14:39;;;;;;;0.00;0.00;;;18.40;99.90;;;18.99;50.99;101408.59;4948129;28;97395;-54
2022/09/23 01:17:29;;;;;;;0.00;0.00;;;18.50;99.90;;;18.98;50.88;101405.06;4957268;28;101562;-55
2022/09/23 01:20:30;;;;;;;0.00;0.00;;;18.50;99.90;;;18.95;50.79;101404.34;4959253;28;99654;-53
2022/09/23 01:23:39;;;;;;;0.10;0.00;;;18.40;99.20;;;18.82;51.43;101396.22;4946590;28;97142;-52
2022/09/23 01:26:13;;;;;;;0.00;0.00;;;18.10;99.90;;;18.79;51.54;101400.88;4969503;28;97370;-55
2022/09/23 01:29:13;;;;;;;0.00;0.00;;;18.10;99.90;;;18.79;51.53;101407.06;4940349;28;97675;-58
2022/09/23 01:31:42;;;;;;;0.00;0.00;;;18.10;99.90;;;18.77;51.45;101392.09;4944245;28;97348;-54
2022/09/23 01:34:41;;;;;;;0.00;0.00;;;18.10;99.90;;;18.77;51.58;101386.72;4970835;28;97112;-53
2022/09/23 01:37:30;;;;;;;0.00;0.00;;;18.10;99.90;;;18.81;51.34;101388.31;4934216;28;97156;-52
2022/09/23 01:40:17;;;;;;;0.00;0.00;;;18.20;99.90;;;18.86;51.23;101394.22;4966765;28;100352;-54
2022/09/23 01:42:54;;;;;;;0.13;0.03;;;18.30;99.90;;;18.87;51.25;101388.78;4954055;28;102038;-54
2022/09/23 01:45:42;;;;;;;0.00;0.00;;;18.30;99.90;;;18.89;51.41;101394.91;4951484;28;97290;-53
2022/09/23 01:48:51;;;;;;;0.00;0.00;;;18.40;99.90;;;18.90;51.20;101393.09;4963407;28;97364;-56
2022/09/23 01:51:23;;;;;;;0.00;0.00;;;18.30;99.90;;;18.90;51.10;101387.75;4946390;28;103727;-55
2022/09/23 01:54:17;;;;;;;0.00;0.00;;;18.40;99.90;;;18.93;51.10;101388.41;4948117;28;97438;-57
2022/09/23 01:56:57;;;;;;;0.10;0.10;;;18.40;99.90;;;18.94;51.16;101384.78;4945635;28;97087;-58
2022/09/23 01:59:39;;;;;;;0.00;0.00;;;18.50;99.90;;;18.95;50.82;101380.31;4957316;28;97312;-55
2022/09/23 02:02:15;;;;;;;0.00;0.00;;;18.50;99.90;;;18.94;50.88;101389.28;4973406;28;99029;-59
2022/09/23 02:05:02;;;;;;;0.00;0.00;;;18.40;99.90;;;18.93;51.06;101392.91;4955716;28;101524;-57
2022/09/23 02:07:47;;;;;;;0.00;0.00;;;18.40;99.90;;;18.90;51.01;101387.75;4950333;28;96694;-57
2022/09/23 02:10:31;;;;;;;0.00;0.00;;;18.30;99.90;;;18.90;51.18;101387.75;4953304;28;97516;-59
2022/09/23 02:13:04;;;;;;;0.10;0.03;;;18.30;99.90;;;18.88;51.11;101386.97;4944564;28;100321;-57
2022/09/23 02:15:45;;;;;;;0.00;0.00;;;18.30;99.90;;;18.90;51.10;101372.56;4948499;28;97280;-59
2022/09/23 02:18:21;;;;;;;0.00;0.00;;;18.30;99.90;;;18.92;51.15;101376.00;4944239;28;97238;-58
2022/09/23 02:20:49;;;;;;;0.00;0.00;;;18.40;99.90;;;18.95;51.21;101386.53;4944398;28;97344;-56
2022/09/23 02:23:33;;;;;;;0.00;0.00;;;18.50;99.90;;;18.97;51.21;101373.09;4949878;28;97429;-62
2022/09/23 02:26:07;;;;;;;0.00;0.00;;;18.50;99.90;;;18.97;50.91;101379.28;4954216;28;101035;-59
2022/09/23 02:28:51;;;;;;;0.00;0.00;;;18.50;99.90;;;19.00;50.95;101368.41;4952594;28;97375;-56
2022/09/23 02:31:37;;;;;;;0.00;0.00;;;18.50;99.90;;;19.05;50.71;101369.94;4967948;28;97397;-55
2022/09/23 02:34:14;;;;;;;0.00;0.00;;;18.60;99.90;;;19.07;50.68;101368.88;4972843;28;97154;-54
2022/09/23 02:37:27;;;;;;;0.00;0.00;;;18.70;99.90;;;19.14;50.36;101364.03;4948701;28;103035;-56
2022/09/23 02:40:00;;;;;;;0.20;0.20;;;18.80;99.90;;;19.15;50.41;101361.28;4951708;28;98468;-53
2022/09/23 02:42:51;;;;;;;0.00;0.00;;;18.80;99.90;;;19.20;50.24;101353.81;4964919;28;97178;-56
2022/09/23 02:45:17;;;;;;;0.00;0.00;;;18.90;99.90;;;19.24;50.25;101355.38;4966996;28;97493;-56
2022/09/23 02:47:49;;;;;;;0.57;0.10;;;18.90;99.90;;;19.26;50.23;101348.13;4966468;28;97911;-56
2022/09/23 02:50:16;;;;;;;0.00;0.00;;;19.00;99.90;;;19.26;49.97;101348.13;4950861;28;97271;-57
2022/09/23 02:52:43;;;;;;;0.00;0.00;;;18.90;99.90;;;19.27;50.18;101348.97;4958598;28;96602;-56
2022/09/23 02:55:15;;;;;;;0.00;0.00;;;18.90;99.90;;;19.26;50.17;101341.91;4968501;28;97909;-55
2022/09/23 02:57:40;;;;;;;0.10;0.10;;;18.90;99.90;;;19.24;50.33;101344.69;4945452;28;102377;-56
2022/09/23 03:00:07;;;;;;;0.20;0.10;;;18.80;99.90;;;19.22;49.97;101345.69;4956904;28;99312;-57
2022/09/23 03:03:10;;;;;;;0.00;0.00;;;18.80;99.30;;;19.15;50.12;101345.22;4963321;28;100017;-57
2022/09/23 03:05:48;;;;;;;0.00;0.00;;;18.60;99.40;;;19.09;50.44;101334.88;4943158;28;97745;-52
2022/09/23 03:08:42;;;;;;;0.00;0.00;;;18.50;99.90;;;19.06;50.58;101335.06;4952128;28;99355;-60
2022/09/23 03:11:11;;;;;;;0.40;0.40;;;18.50;99.90;;;19.03;50.42;101336.13;4948212;28;97204;-56
2022/09/23 03:14:05;;;;;;;0.20;0.20;;;18.50;99.90;;;18.98;50.49;101332.03;4963952;28;97424;-57
2022/09/23 03:17:09;;;;;;;0.00;0.00;;;18.40;99.90;;;18.93;50.91;101334.94;4952476;28;97385;-57
2022/09/23 03:19:53;;;;;;;0.00;0.00;;;18.30;99.90;;;18.86;50.55;101332.75;4959014;28;97424;-57
2022/09/23 03:22:54;;;;;;;0.00;0.00;;;18.20;99.30;;;18.75;51.18;101328.03;4947782;28;97135;-53
2022/09/23 03:25:23;;;;;;;0.00;0.00;;;17.90;99.90;;;18.67;51.66;101333.84;4945669;28;97813;-55
2022/09/23 03:27:50;;;;;;;0.00;0.00;;;17.90;99.90;;;18.63;51.56;101332.28;4967211;28;98019;-53
2022/09/23 03:30:17;;;;;;;0.03;0.03;;;17.80;99.90;;;18.62;51.85;101325.19;4949254;28;97120;-56
2022/09/23 03:32:45;;;;;;;0.00;0.00;;;17.90;99.90;;;18.64;51.79;101323.31;4964859;28;97407;-57
2022/09/23 03:35:13;;;;;;;0.00;0.00;;;18.00;99.90;;;18.65;51.81;101325.03;4955414;28;97190;-55
2022/09/23 03:37:57;;;;;;;0.00;0.00;;;18.00;99.90;;;18.65;51.59;101330.38;4963145;28;97897;-56
2022/09/23 03:40:32;;;;;;;0.73;0.20;;;18.00;99.90;;;18.64;51.61;101328.66;4947796;28;97493;-56
2022/09/23 03:43:00;;;;;;;0.13;0.10;;;18.00;99.90;;;18.64;51.61;101334.00;4971613;28;97342;-56
2022/09/23 03:45:31;;;;;;;0.47;0.00;;;18.00;99.90;;;18.67;51.31;101328.50;4942297;28;97363;-55
2022/09/23 03:47:58;;;;;;;0.00;0.00;;;18.10;99.90;;;18.67;51.56;101325.84;4969118;28;97150;-52
2022/09/23 03:50:24;;;;;;;0.00;0.00;;;18.10;99.90;;;18.69;51.52;101326.59;4963629;28;105642;-56
2022/09/23 03:52:50;;;;;;;0.00;0.00;;;18.10;99.90;;;18.69;51.31;101315.91;4959347;28;97606;-55
2022/09/23 03:55:18;;;;;;;0.00;0.00;;;18.10;99.90;;;18.71;51.57;101324.69;4965672;28;102963;-58
2022/09/23 03:57:44;;;;;;;0.10;0.10;;;18.10;99.90;;;18.68;51.79;101327.56;4968683;28;98160;-55
2022/09/23 04:00:12;;;;;;;0.10;0.00;;;18.00;99.90;;;18.65;51.59;101319.69;4963140;28;97521;-56
2022/09/23 04:02:38;;;;;;;0.00;0.00;;;18.00;99.90;;;18.62;51.71;101316.31;4958763;28;97489;-56
2022/09/23 04:05:06;;;;;;;0.00;0.00;;;17.90;99.90;;;18.62;51.73;101319.84;4968653;28;96816;-56
2022/09/23 04:07:32;;;;;;;0.00;0.00;;;17.90;99.90;;;18.62;51.48;101314.50;4944472;28;97443;-56
2022/09/23 04:09:58;;;;;;;0.00;0.00;;;17.90;99.90;;;18.65;51.64;101314.34;4959944;28;97081;-56
2022/09/23 04:12:24;;;;;;;0.10;0.00;;;18.00;99.90;;;18.64;51.54;101320.63;4964203;28;97130;-53
2022/09/23 04:14:50;;;;;;;0.00;0.00;;;17.90;99.90;;;18.62;51.61;101310.97;4961716;28;99789;-56
2022/09/23 04:17:16;;;;;;;0.30;0.20;;;17.90;99.90;;;18.59;51.47;101314.69;4962470;28;115540;-60
2022/09/23 04:19:42;;;;;;;0.00;0.00;;;17.80;99.90;;;18.57;51.83;101316.59;4959249;28;97057;-53
2022/09/23 04:22:08;;;;;;;0.00;0.00;;;17.70;99.90;;;18.60;52.00;101311.06;4949221;28;97446;-55
2022/09/23 04:24:34;;;;;;;0.00;0.00;;;17.90;99.90;;;18.63;51.75;101305.56;4954110;28;104415;-54
2022/09/23 04:27:00;;;;;;;0.00;0.00;;;18.00;99.90;;;18.67;51.78;101307.13;4950196;28;97393;-53
2022/09/23 04:29:26;;;;;;;0.10;0.10;;;18.10;99.90;;;18.68;51.72;101297.31;4960737;28;102441;-54
2022/09/23 04:31:52;;;;;;;0.00;0.00;;;18.10;99.90;;;18.70;51.80;101296.25;4963902;28;97493;-55
2022/09/23 04:34:18;;;;;;;0.00;0.00;;;18.10;99.90;;;18.72;51.39;101289.00;4964204;28;97461;-56
2022/09/23 04:36:46;;;;;;;0.10;0.10;;;18.10;99.90;;;18.73;51.67;101284.50;4966727;28;98128;-54
2022/09/23 04:39:13;;;;;;;0.00;0.00;;;18.10;99.90;;;18.79;51.36;101281.47;4968664;28;97367;-52
2022/09/23 04:41:40;;;;;;;0.00;0.00;;;18.20;99.90;;;18.83;51.28;101284.84;4958826;28;97107;-50
2022/09/23 04:44:06;;;;;;;0.00;0.00;;;18.40;99.90;;;18.84;51.32;101286.56;4961339;28;97006;-53
2022/09/23 04:46:32;;;;;;;0.00;0.00;;;18.30;99.90;;;18.84;51.19;101281.22;4968091;28;103456;-57
2022/09/23 04:48:58;;;;;;;0.00;0.00;;;18.30;99.90;;;18.81;51.08;101284.94;4971340;28;105616;-56
2022/09/23 04:51:26;;;;;;;0.00;0.00;;;18.20;99.90;;;18.78;51.32;101281.56;4964955;28;97416;-56
2022/09/23 04:53:54;;;;;;;0.00;0.00;;;18.10;99.90;;;18.72;51.62;101283.66;4956920;28;101163;-51
2022/09/23 04:56:26;;;;;;;3.80;0.10;;;18.00;99.90;;;18.70;51.43;101282.03;4945287;28;103518;-56
2022/09/23 04:58:53;;;;;;;0.00;0.00;;;18.00;99.90;;;18.69;51.52;101278.50;4967858;28;97833;-53
2022/09/23 05:01:25;;;;;;;0.00;0.00;;;18.00;99.90;;;18.71;51.66;101271.25;4941902;28;97251;-52
2022/09/23 05:04:00;;;;;;;0.10;0.07;;;18.10;99.90;;;18.73;51.39;101277.34;4968882;28;97297;-54
2022/09/23 05:06:28;;;;;;;0.00;0.00;;;18.10;99.90;;;18.77;51.43;101269.16;4962543;28;96976;-53
2022/09/23 05:08:56;;;;;;;1.70;0.10;;;18.20;99.90;;;18.81;51.35;101265.38;4968004;28;97238;-57
2022/09/23 05:11:24;;;;;;;0.00;0.00;;;18.30;99.90;;;18.83;51.39;101275.00;4960159;28;97153;-56
2022/09/23 05:13:53;;;;;;;0.00;0.00;;;18.40;99.90;;;18.85;51.20;101272.22;4965754;28;97254;-57
2022/09/23 05:16:22;;;;;;;0.00;0.00;;;18.30;99.90;;;18.86;51.26;101269.47;4949842;28;97594;-56
2022/09/23 05:18:49;;;;;;;0.00;0.00;;;18.40;99.90;;;18.87;50.87;101275.66;4963862;28;98232;-54
2022/09/23 05:21:21;;;;;;;0.00;0.00;;;18.40;99.90;;;18.85;50.90;101277.56;4972131;28;97301;-51
2022/09/23 05:23:57;;;;;;;0.00;0.00;;;18.30;99.90;;;18.81;51.12;101276.91;4958313;28;97294;-56
2022/09/23 05:26:26;;;;;;;0.00;0.00;;;18.20;99.70;;;18.78;51.33;101273.53;4958383;28;97303;-54
2022/09/23 05:28:53;;;;;;;0.00;0.00;;;18.10;99.90;;;18.77;51.49;101274.50;4967828;28;97098;-54
2022/09/23 05:31:22;;;;;;;0.00;0.00;;;18.10;99.90;;;18.79;51.13;101268.09;4961349;28;97156;-52
2022/09/23 05:33:56;;;;;;;0.00;0.00;;;18.20;99.90;;;18.83;51.09;101268.78;4971318;28;97266;-54
2022/09/23 05:36:23;;;;;;;0.10;0.10;;;18.30;99.90;;;18.86;50.83;101268.59;4967894;28;97159;-56
2022/09/23 05:38:50;;;;;;;0.00;0.00;;;18.40;99.90;;;18.84;50.75;101270.50;4975204;28;97470;-54
2022/09/23 05:41:19;;;;;;;0.30;0.20;;;18.30;99.90;;;18.79;50.89;101268.09;4942541;28;97096;-60
2022/09/23 05:43:46;;;;;;;0.00;0.00;;;18.20;99.90;;;18.77;51.12;101269.16;4971596;28;97324;-53
2022/09/23 05:46:18;;;;;;;0.20;0.20;;;18.10;99.90;;;18.69;51.19;101273.16;4968618;28;96883;-53
2022/09/23 05:48:44;;;;;;;0.00;0.00;;;17.90;99.90;;;18.57;51.56;101279.19;4961613;28;99729;-56
2022/09/23 05:51:18;;;;;;;0.00;0.00;;;17.70;99.90;;;18.53;51.83;101283.00;4964905;28;99057;-55
2022/09/23 05:53:46;;;;;;;0.23;0.23;;;17.60;99.90;;;18.51;51.75;101279.53;4956782;28;97706;-52
2022/09/23 05:56:14;;;;;;;0.00;0.00;;;17.70;99.90;;;18.55;51.61;101285.56;4967335;28;97988;-54
2022/09/23 05:58:40;;;;;;;0.00;0.00;;;17.80;99.90;;;18.56;51.84;101293.50;4961782;28;97431;-52
2022/09/23 06:01:16;;;;;;;0.00;0.00;;;17.90;99.90;;;18.55;51.49;101297.13;4969921;28;97747;-55
2022/09/23 06:03:48;;;;;;;0.00;0.00;;;17.80;99.90;;;18.52;51.92;101286.63;4955250;28;97489;-51
2022/09/23 06:06:19;;;;;;;0.00;0.00;;;17.70;99.90;;;18.53;51.80;101288.34;4949339;28;97749;-52
2022/09/23 06:08:46;;;;;;;0.20;0.07;;;17.80;99.90;;;18.58;51.89;101280.91;4956986;28;102993;-54
2022/09/23 06:11:13;;;;;;;0.07;0.07;;;17.90;99.90;;;18.63;51.37;101284.19;4958525;28;96971;-54
2022/09/23 06:13:40;;;;;;;0.07;0.07;;;18.00;99.90;;;18.66;51.28;101285.81;4952828;28;97940;-56
2022/09/23 06:16:10;;;;;;;0.17;0.17;;;18.10;99.90;;;18.67;51.46;101280.41;4958430;28;99020;-53
2022/09/23 06:18:41;;;;;;;0.00;0.00;;;18.10;99.90;;;18.67;51.67;101285.75;4949931;28;98199;-53
2022/09/23 06:21:11;;;;;;;0.00;0.00;;;18.00;99.90;;;18.67;51.28;101290.22;4952198;28;97850;-58
2022/09/23 06:23:37;;;;;;;0.13;0.10;;;18.00;99.90;;;18.63;51.41;101284.19;4950308;28;99814;-56
2022/09/23 06:26:06;;;;;;;0.00;0.00;;;17.90;99.90;;;18.59;51.39;101287.97;4954533;28;97392;-59
2022/09/23 06:28:35;;;;;;;0.00;0.00;;;17.80;99.90;;;18.56;51.81;101296.19;4957659;28;99821;-58
2022/09/23 06:31:09;;;;;;;0.00;0.00;;;17.80;99.90;;;18.59;51.78;101285.28;4944264;28;97241;-58
2022/09/23 06:33:35;;;;;;;0.00;0.00;;;17.90;99.90;;;18.67;51.73;101288.41;4932175;28;97309;-56
2022/09/23 06:36:04;;;;;;;0.00;0.00;;;18.10;99.90;;;18.79;51.29;101286.81;4940416;28;102246;-58
2022/09/23 06:38:30;;;;;;;0.30;0.30;;;18.30;99.90;;;18.95;51.01;101284.06;4955499;28;97251;-58
2022/09/23 06:40:57;;;;;;;0.00;0.00;;;18.60;99.90;;;19.07;50.66;101277.97;4959510;28;97183;-59
2022/09/23 06:43:25;;;;;;;0.00;0.00;;;18.80;99.90;;;19.15;49.94;101286.41;4964384;28;97088;-59
2022/09/23 06:45:56;;;;;;;0.00;0.00;;;19.00;99.90;;;19.20;49.89;101278.94;4956105;28;100197;-56
2022/09/23 06:48:24;;;;;;;0.00;0.00;;;19.00;99.90;;;19.26;49.95;101270.56;4955758;28;97325;-58
2022/09/23 06:50:52;;;;;;;0.10;0.10;;;19.10;99.90;;;19.32;49.78;101272.84;4949051;28;97406;-58
2022/09/23 06:53:23;;;;;;;0.00;0.00;;;19.10;99.90;;;19.36;49.33;101269.97;4932842;28;97490;-59
2022/09/23 06:56:07;;;;;;;0.00;0.00;;;19.20;99.90;;;19.32;49.03;101280.84;4938338;28;97401;-59
2022/09/23 06:58:35;;;;;;;0.00;0.00;;;19.10;98.50;;;19.26;49.71;101294.63;4948867;28;97874;-59
2022/09/23 07:01:04;;;;;;;0.00;0.00;;;18.90;99.90;;;19.26;49.62;101291.09;4956565;28;97053;-56
2022/09/23 07:03:33;;;;;;;0.07;0.07;;;18.90;99.90;;;19.20;49.77;101294.13;4945617;28;97372;-55
2022/09/23 07:05:59;;;;;;;0.00;0.00;;;18.80;99.90;;;19.18;49.62;101291.56;4936664;28;98146;-56
2022/09/23 07:08:27;;;;;;;0.20;0.17;;;18.80;99.90;;;19.15;50.10;101282.88;4934378;28;101163;-54
2022/09/23 07:10:58;;;;;;;2.03;0.07;;;18.70;99.90;;;19.17;50.16;101289.84;4918241;28;97033;-58
2022/09/23 07:13:25;;;;;;;0.00;0.00;;;18.80;99.90;;;19.23;49.83;101288.59;4917587;28;97630;-60
2022/09/23 07:16:00;;;;;;;0.20;0.10;;;18.90;99.90;;;19.27;49.95;101293.66;4933149;28;98282;-57
2022/09/23 07:18:27;;;;;;;0.00;0.00;;;18.90;99.90;;;19.29;48.87;101289.09;4943035;28;98408;-52
2022/09/23 07:20:56;;;;;;;0.10;0.10;;;19.00;98.00;;;19.37;49.77;101285.91;4928248;28;97872;-58
2022/09/23 07:23:23;;;;;;;0.10;0.10;;;19.10;99.90;;;19.50;49.30;101296.72;4928305;28;101744;-58
2022/09/23 07:25:50;;;;;;;0.00;0.00;;;19.40;99.90;;;19.49;49.34;101290.50;4945890;28;98009;-57
2022/09/23 07:28:18;;;;;;;0.00;0.00;;;19.30;99.90;;;19.49;46.93;101289.66;4951686;28;98419;-59
2022/09/23 07:30:44;;;;;;;0.00;0.00;;;19.30;97.10;;;19.51;48.60;101287.72;4959721;28;97333;-55
2022/09/23 07:33:10;;;;;;;0.00;0.00;;;19.30;99.10;;;19.54;49.05;101282.22;4949714;28;97486;-57
2022/09/23 07:35:40;;;;;;;0.00;0.00;;;19.30;99.90;;;19.63;48.15;101287.00;4955566;28;97489;-54
2022/09/23 07:38:10;;;;;;;0.00;0.00;;;19.50;99.00;;;19.68;48.84;101287.56;4956381;28;101397;-57
2022/09/23 07:40:38;;;;;;;0.10;0.10;;;19.70;99.90;;;19.75;47.37;101290.72;4951794;28;103227;-55
2022/09/23 07:43:06;;;;;;;0.00;0.00;;;19.80;97.60;;;19.68;47.52;101290.25;4962394;28;97580;-57
2022/09/23 07:45:32;;;;;;;0.10;0.10;;;19.60;97.50;;;19.65;42.55;101290.41;4960885;28;98395;-57
2022/09/23 07:48:00;;;;;;;0.00;0.00;;;19.50;95.50;;;19.68;48.69;101290.25;4956531;28;98512;-58
2022/09/23 07:50:26;;;;;;;0.10;0.10;;;19.40;99.90;;;19.55;44.43;101289.31;4952303;28;99904;-58
2022/09/23 07:52:52;;;;;;;0.27;0.13;;;19.40;95.30;;;19.57;47.90;101298.09;4959519;28;99606;-57
2022/09/23 07:55:19;;;;;;;0.20;0.20;;;19.40;98.30;;;19.56;48.86;101299.91;4953292;28;112907;-56
2022/09/23 07:57:45;;;;;;;0.00;0.00;;;19.40;99.90;;;19.62;47.49;101295.97;4955189;28;97221;-54
2022/09/23 08:00:12;;;;;;;0.10;0.10;;;19.50;97.70;;;19.69;48.47;101291.97;4946317;28;97856;-54
2022/09/23 08:02:40;;;;;;;0.00;0.00;;;19.60;99.90;;;19.78;47.48;101291.34;4943787;28;98505;-58
2022/09/23 08:05:06;;;;;;;0.00;0.00;;;19.70;98.50;;;19.70;48.17;101287.47;4953388;28;98258;-56
2022/09/23 08:07:35;;;;;;;0.00;0.00;;;19.60;99.80;;;19.77;48.11;101295.00;4946505;28;99503;-52
2022/09/23 08:10:01;;;;;;;0.00;0.00;;;19.70;99.80;;;19.82;46.74;101298.25;4958631;28;97305;-56
2022/09/23 08:12:28;;;;;;;0.00;0.00;;;19.80;98.60;;;19.67;44.85;101288.50;4947535;28;98947;-56
2022/09/23 08:14:55;;;;;;;0.00;0.00;;;19.50;96.60;;;19.65;46.54;101298.44;4946053;28;97175;-54
2022/09/23 08:17:20;;;;;;;4.47;0.30;;;19.40;96.80;;;19.59;48.26;101302.38;4933236;28;98697;-52
2022/09/23 08:19:46;;;;;;;0.00;0.00;;;19.30;98.70;;;19.54;48.53;101292.91;4947872;28;108705;-56
2022/09/23 08:22:12;;;;;;;0.07;0.07;;;19.20;99.60;;;19.48;44.95;101290.59;4953492;28;98868;-56
2022/09/23 08:24:38;;;;;;;0.00;0.00;;;19.20;97.00;;;19.39;48.05;101291.19;4939905;28;101087;-53
2022/09/23 08:27:04;;;;;;;0.00;0.00;;;19.00;98.50;;;19.44;49.05;101286.41;4951327;28;97213;-52
2022/09/23 08:29:29;;;;;;;0.00;0.00;;;19.10;99.90;;;19.46;48.89;101293.38;4948612;28;97348;-57
2022/09/23 08:31:55;;;;;;;0.00;0.00;;;19.20;99.40;;;19.54;48.54;101283.09;4959625;28;105609;-54
2022/09/23 08:34:22;;;;;;;0.17;0.17;;;19.30;99.80;;;19.59;48.64;101288.16;4929398;28;97409;-56
2022/09/23 08:36:48;;;;;;;0.00;0.00;;;19.40;99.90;;;19.56;45.76;101285.66;4960345;28;97175;-56
2022/09/23 08:39:17;;;;;;;0.10;0.10;;;19.40;96.80;;;19.47;43.68;101280.84;4956876;28;99099;-50
2022/09/23 08:42:06;;;;;;;0.03;0.03;;;19.20;96.40;;;19.45;48.76;101283.63;4946308;28;97530;-54
2022/09/23 08:44:56;;;;;;;0.10;0.10;;;19.10;99.90;;;19.34;44.67;101270.06;4951257;28;97683;-58
2022/09/23 08:47:52;;;;;;;0.20;0.10;;;19.00;97.10;;;19.38;47.37;101270.72;4959641;28;97548;-59
2022/09/23 08:50:51;;;;;;;0.00;0.00;;;19.10;98.80;;;19.30;48.81;101266.72;4934183;28;97198;-57
2022/09/23 08:53:23;;;;;;;0.20;0.17;;;19.00;99.20;;;19.38;49.34;101268.91;4957589;28;97573;-57
2022/09/23 08:55:52;;;;;;;0.37;0.17;;;19.10;99.90;;;19.39;45.18;101269.78;4959999;28;98228;-53
2022/09/23 08:58:48;;;;;;;0.00;0.00;;;19.20;97.60;;;19.55;49.14;101270.56;4926648;28;102492;-56
2022/09/23 09:01:44;;;;;;;0.00;0.00;;;19.40;99.90;;;19.56;44.31;101269.63;4951612;28;97708;-58
2022/09/23 09:04:34;;;;;;;0.00;0.00;;;19.40;97.00;;;19.36;44.74;101273.50;4939807;28;100147;-57
2022/09/23 09:07:06;;;;;;;0.10;0.00;;;19.20;95.90;;;19.32;48.41;101272.84;4957733;28;100425;-53
2022/09/23 09:09:55;;;;;;;0.40;0.37;;;19.00;98.20;;;19.39;48.19;101272.47;4939535;28;100500;-59
2022/09/23 09:12:39;;;;;;;0.10;0.10;;;19.10;98.30;;;19.42;49.15;101272.28;4942497;28;96968;-58
2022/09/23 09:15:27;;;;;;;0.20;0.10;;;19.20;99.90;;;19.43;47.42;101263.28;4928486;28;97280;-56
2022/09/23 09:18:09;;;;;;;0.00;0.00;;;19.20;98.20;;;19.49;47.90;101262.88;4951329;28;102472;-53
2022/09/23 09:20:59;;;;;;;0.00;0.00;;;19.30;99.70;;;19.58;46.84;101263.22;4950344;28;97137;-59
2022/09/23 09:23:55;;;;;;;0.20;0.10;;;19.40;98.00;;;19.66;47.53;101259.16;4937366;28;97612;-57
2022/09/23 09:26:31;;;;;;;0.87;0.10;;;19.50;99.90;;;19.74;48.82;101260.41;4954857;28;97596;-55
2022/09/23 09:29:17;;;;;;;0.03;0.03;;;19.70;99.90;;;19.71;43.93;101265.97;4941553;28;98606;-59
2022/09/23 09:31:46;;;;;;;0.00;0.00;;;19.60;96.40;;;19.74;47.76;101268.44;4956048;28;101096;-55
2022/09/23 09:34:40;;;;;;;0.20;0.20;;;19.60;98.20;;;19.78;48.37;101267.28;4961823;28;99131;-57
2022/09/23 09:37:22;;;;;;;0.10;0.10;;;19.60;99.60;;;19.85;48.40;101271.28;4927840;28;97555;-56
2022/09/23 09:39:48;;;;;;;0.17;0.17;;;19.80;99.60;;;19.94;47.98;101263.59;4926657;28;101313;-58
2022/09/23 09:42:26;;;;;;;0.00;0.00;;;19.90;99.40;;;20.00;47.92;101253.38;4935857;28;99152;-56
2022/09/23 09:45:00;;;;;;;0.37;0.27;;;20.00;99.20;;;20.05;47.28;101245.03;4949835;28;99865;-57
2022/09/23 09:47:56;;;;;;;0.00;0.00;;;20.10;98.00;;;20.10;47.67;101243.75;4940267;28;98847;-59
2022/09/23 09:50:50;;;;;;;0.00;0.00;;;20.10;97.90;;;20.12;47.58;101246.34;4960365;28;97378;-57
2022/09/23 09:53:20;;;;;;;0.00;0.00;;;20.20;98.50;;;20.16;47.68;101239.81;4960860;28;97062;-58
2022/09/23 09:56:15;;;;;;;0.00;0.00;;;20.20;98.80;;;20.20;43.47;101238.63;4963891;28;96937;-61
2022/09/23 09:58:58;;;;;;;0.57;0.00;;;20.20;97.20;;;20.18;47.26;101240.56;4962909;28;97614;-55
2022/09/23 10:01:33;;;;;;;0.00;0.00;;;20.20;98.70;;;20.16;47.37;101240.69;4961837;28;97385;-57
2022/09/23 10:04:32;;;;;;;0.00;0.00;;;20.20;98.70;;;20.21;47.38;101240.34;4949061;28;97622;-55
2022/09/23 10:07:13;;;;;;;0.00;0.00;;;20.30;98.60;;;20.21;47.21;101233.19;4939493;28;98175;-51
2022/09/23 10:09:48;;;;;;;0.00;0.00;;;20.40;98.50;;;20.29;47.22;101240.72;4963326;28;97618;-57
2022/09/23 10:12:20;;;;;;;0.00;0.00;;;20.40;98.50;;;20.35;46.93;101237.63;4967514;28;97469;-59
2022/09/23 10:14:52;;;;;;;0.00;0.00;;;20.40;98.30;;;20.36;45.82;101238.47;4946183;28;101194;-54
2022/09/23 10:17:31;;;;;;;0.00;0.00;;;20.40;96.80;;;20.37;46.66;101238.38;4961928;28;97883;-58
2022/09/23 10:20:13;;;;;;;0.33;0.30;;;20.40;97.90;;;20.35;46.76;101237.63;4964821;28;99527;-57
2022/09/23 10:22:41;;;;;;;0.00;0.00;;;20.30;98.30;;;20.33;43.81;101234.19;4960948;28;97687;-57
2022/09/23 10:25:23;;;;;;;0.00;0.00;;;20.30;95.60;;;20.31;47.05;101236.13;4938252;28;97334;-58
2022/09/23 10:27:49;;;;;;;0.00;0.00;;;20.20;98.20;;;20.30;47.05;101237.06;4952670;28;98864;-53
2022/09/23 10:30:25;;;;;;;0.10;0.10;;;20.30;98.50;;;20.32;47.26;101236.97;4962927;28;97607;-57
2022/09/23 10:32:55;;;;;;;0.27;0.27;;;20.40;98.50;;;20.37;44.74;101230.31;4961987;28;100547;-53
2022/09/23 10:35:24;;;;;;;4.57;0.20;;;20.40;96.90;;;20.36;46.82;101233.97;4958651;28;96917;-55
2022/09/23 10:37:54;;;;;;;0.00;0.00;;;20.40;98.00;;;20.39;46.20;101239.13;4963755;28;97362;-55
2022/09/23 10:46:40;;;;;;;0.00;0.00;;;20.50;98.00;;;20.45;46.84;101220.00;4959560;28;99729;-55